sensor_id;sensor_type;location;lat;lon;timestamp;P1;durP1;ratioP1;P2;durP2;ratioP2
57249;SDS011;43102;52.014;-0.680;2022-12-07T00:00:01;12.10;;;6.50;;
57249;SDS011;43102;52.014;-0.680;2022-12-07T00:01:09;12.10;;;6.50;;
57249;SDS011;43102;52.014;-0.680;2022-12-07T00:02:00;12.10;;;6.50;;
57249;SDS011;43102;52.014;-0.680;2022-12-07T00:03:00;12.10;;;6.50;;
57249;SDS011;43102;52.014;-0.680;2022-12-07T00:04:04;12.10;;;6.50;;
57249;SDS011;43102;52.014;-0.680;2022-12-07T00:05:00;12.10;;;6.50;;
57249;SDS011;43102;52.014;-0.680;2022-12-07T00:06:01;12.10;;;6.50;;
57249;SDS011;43102;52.014;-0.680;2022-12-07T00:07:01;12.10;;;6.50;;
57249;SDS011;43102;52.014;-0.680;2022-12-07T00:08:00;12.10;;;6.50;;
57249;SDS011;43102;52.014;-0.680;2022-12-07T00:09:00;12.10;;;6.50;;
57249;SDS011;43102;52.014;-0.680;2022-12-07T00:10:00;12.10;;;6.50;;
57249;SDS011;43102;52.014;-0.680;2022-12-07T00:11:02;12.10;;;6.50;;
57249;SDS011;43102;52.014;-0.680;2022-12-07T00:12:00;12.10;;;6.50;;
57249;SDS011;43102;52.014;-0.680;2022-12-07T00:13:00;12.10;;;6.50;;
57249;SDS011;43102;52.014;-0.680;2022-12-07T00:14:03;12.10;;;6.50;;
57249;SDS011;43102;52.014;-0.680;2022-12-07T00:15:03;12.10;;;6.50;;
57249;SDS011;43102;52.014;-0.680;2022-12-07T00:16:04;12.10;;;6.50;;
57249;SDS011;43102;52.014;-0.680;2022-12-07T00:17:00;12.10;;;6.50;;
57249;SDS011;43102;52.014;-0.680;2022-12-07T00:18:00;12.10;;;6.50;;
57249;SDS011;43102;52.014;-0.680;2022-12-07T00:19:00;18.00;;;8.80;;
57249;SDS011;43102;52.014;-0.680;2022-12-07T00:20:01;18.00;;;8.80;;
57249;SDS011;43102;52.014;-0.680;2022-12-07T00:21:08;18.00;;;8.80;;
57249;SDS011;43102;52.014;-0.680;2022-12-07T00:22:00;18.00;;;8.80;;
57249;SDS011;43102;52.014;-0.680;2022-12-07T00:23:00;18.00;;;8.80;;
57249;SDS011;43102;52.014;-0.680;2022-12-07T00:24:01;18.00;;;8.80;;
57249;SDS011;43102;52.014;-0.680;2022-12-07T00:25:00;18.00;;;8.80;;
57249;SDS011;43102;52.014;-0.680;2022-12-07T00:26:10;18.00;;;8.80;;
57249;SDS011;43102;52.014;-0.680;2022-12-07T00:27:00;18.00;;;8.80;;
57249;SDS011;43102;52.014;-0.680;2022-12-07T00:28:00;18.00;;;8.80;;
57249;SDS011;43102;52.014;-0.680;2022-12-07T00:29:09;18.00;;;8.80;;
57249;SDS011;43102;52.014;-0.680;2022-12-07T00:30:01;18.00;;;8.80;;
57249;SDS011;43102;52.014;-0.680;2022-12-07T00:31:02;18.00;;;8.80;;
57249;SDS011;43102;52.014;-0.680;2022-12-07T00:32:00;18.00;;;8.80;;
57249;SDS011;43102;52.014;-0.680;2022-12-07T00:33:00;18.00;;;8.80;;
57249;SDS011;43102;52.014;-0.680;2022-12-07T00:34:00;18.00;;;8.80;;
57249;SDS011;43102;52.014;-0.680;2022-12-07T00:35:00;18.00;;;8.80;;
57249;SDS011;43102;52.014;-0.680;2022-12-07T00:36:01;18.00;;;8.80;;
57249;SDS011;43102;52.014;-0.680;2022-12-07T00:37:00;18.00;;;8.80;;
57249;SDS011;43102;52.014;-0.680;2022-12-07T00:38:00;18.00;;;8.80;;
57249;SDS011;43102;52.014;-0.680;2022-12-07T00:39:01;18.00;;;8.80;;
57249;SDS011;43102;52.014;-0.680;2022-12-07T00:40:00;18.00;;;8.80;;
57249;SDS011;43102;52.014;-0.680;2022-12-07T00:41:02;18.00;;;8.80;;
57249;SDS011;43102;52.014;-0.680;2022-12-07T00:42:00;18.00;;;8.80;;
57249;SDS011;43102;52.014;-0.680;2022-12-07T00:43:00;18.00;;;8.80;;
57249;SDS011;43102;52.014;-0.680;2022-12-07T00:44:00;18.00;;;8.80;;
57249;SDS011;43102;52.014;-0.680;2022-12-07T00:45:00;18.00;;;8.80;;
57249;SDS011;43102;52.014;-0.680;2022-12-07T00:46:00;18.00;;;8.80;;
57249;SDS011;43102;52.014;-0.680;2022-12-07T00:47:00;18.00;;;8.80;;
57249;SDS011;43102;52.014;-0.680;2022-12-07T00:48:00;18.00;;;8.80;;
57249;SDS011;43102;52.014;-0.680;2022-12-07T00:49:00;11.60;;;7.30;;
57249;SDS011;43102;52.014;-0.680;2022-12-07T00:50:00;11.60;;;7.30;;
57249;SDS011;43102;52.014;-0.680;2022-12-07T00:51:00;11.60;;;7.30;;
57249;SDS011;43102;52.014;-0.680;2022-12-07T00:52:00;11.60;;;7.30;;
57249;SDS011;43102;52.014;-0.680;2022-12-07T00:53:00;11.60;;;7.30;;
57249;SDS011;43102;52.014;-0.680;2022-12-07T00:54:00;11.60;;;7.30;;
57249;SDS011;43102;52.014;-0.680;2022-12-07T00:55:00;11.60;;;7.30;;
57249;SDS011;43102;52.014;-0.680;2022-12-07T00:56:11;11.60;;;7.30;;
57249;SDS011;43102;52.014;-0.680;2022-12-07T00:57:00;11.60;;;7.30;;
57249;SDS011;43102;52.014;-0.680;2022-12-07T00:58:00;11.60;;;7.30;;
57249;SDS011;43102;52.014;-0.680;2022-12-07T00:59:02;11.60;;;7.30;;
57249;SDS011;43102;52.014;-0.680;2022-12-07T01:00:00;11.60;;;7.30;;
57249;SDS011;43102;52.014;-0.680;2022-12-07T01:01:02;11.60;;;7.30;;
57249;SDS011;43102;52.014;-0.680;2022-12-07T01:02:00;11.60;;;7.30;;
57249;SDS011;43102;52.014;-0.680;2022-12-07T01:03:00;11.60;;;7.30;;
57249;SDS011;43102;52.014;-0.680;2022-12-07T01:04:02;11.60;;;7.30;;
57249;SDS011;43102;52.014;-0.680;2022-12-07T01:05:00;11.60;;;7.30;;
57249;SDS011;43102;52.014;-0.680;2022-12-07T01:06:00;11.60;;;7.30;;
57249;SDS011;43102;52.014;-0.680;2022-12-07T01:07:00;11.60;;;7.30;;
57249;SDS011;43102;52.014;-0.680;2022-12-07T01:08:00;11.60;;;7.30;;
57249;SDS011;43102;52.014;-0.680;2022-12-07T01:09:00;11.60;;;7.30;;
57249;SDS011;43102;52.014;-0.680;2022-12-07T01:10:00;11.60;;;7.30;;
57249;SDS011;43102;52.014;-0.680;2022-12-07T01:11:03;11.60;;;7.30;;
57249;SDS011;43102;52.014;-0.680;2022-12-07T01:12:00;11.60;;;7.30;;
57249;SDS011;43102;52.014;-0.680;2022-12-07T01:13:00;11.60;;;7.30;;
57249;SDS011;43102;52.014;-0.680;2022-12-07T01:14:01;11.60;;;7.30;;
57249;SDS011;43102;52.014;-0.680;2022-12-07T01:15:00;11.60;;;7.30;;
57249;SDS011;43102;52.014;-0.680;2022-12-07T01:16:02;11.60;;;7.30;;
57249;SDS011;43102;52.014;-0.680;2022-12-07T01:17:00;11.60;;;7.30;;
57249;SDS011;43102;52.014;-0.680;2022-12-07T01:18:00;11.60;;;7.30;;
57249;SDS011;43102;52.014;-0.680;2022-12-07T01:19:01;12.80;;;8.00;;
57249;SDS011;43102;52.014;-0.680;2022-12-07T01:20:01;12.80;;;8.00;;
57249;SDS011;43102;52.014;-0.680;2022-12-07T01:21:05;12.80;;;8.00;;
57249;SDS011;43102;52.014;-0.680;2022-12-07T01:22:00;12.80;;;8.00;;
57249;SDS011;43102;52.014;-0.680;2022-12-07T01:23:00;12.80;;;8.00;;
57249;SDS011;43102;52.014;-0.680;2022-12-07T01:24:01;12.80;;;8.00;;
57249;SDS011;43102;52.014;-0.680;2022-12-07T01:25:00;12.80;;;8.00;;
57249;SDS011;43102;52.014;-0.680;2022-12-07T01:26:03;12.80;;;8.00;;
57249;SDS011;43102;52.014;-0.680;2022-12-07T01:27:00;12.80;;;8.00;;
57249;SDS011;43102;52.014;-0.680;2022-12-07T01:28:00;12.80;;;8.00;;
57249;SDS011;43102;52.014;-0.680;2022-12-07T01:29:00;12.80;;;8.00;;
57249;SDS011;43102;52.014;-0.680;2022-12-07T01:30:02;12.80;;;8.00;;
57249;SDS011;43102;52.014;-0.680;2022-12-07T01:31:02;12.80;;;8.00;;
57249;SDS011;43102;52.014;-0.680;2022-12-07T01:32:00;12.80;;;8.00;;
57249;SDS011;43102;52.014;-0.680;2022-12-07T01:33:00;12.80;;;8.00;;
57249;SDS011;43102;52.014;-0.680;2022-12-07T01:34:00;12.80;;;8.00;;
57249;SDS011;43102;52.014;-0.680;2022-12-07T01:35:00;12.80;;;8.00;;
57249;SDS011;43102;52.014;-0.680;2022-12-07T01:36:01;12.80;;;8.00;;
57249;SDS011;43102;52.014;-0.680;2022-12-07T01:37:00;12.80;;;8.00;;
57249;SDS011;43102;52.014;-0.680;2022-12-07T01:38:00;12.80;;;8.00;;
57249;SDS011;43102;52.014;-0.680;2022-12-07T01:39:03;12.80;;;8.00;;
57249;SDS011;43102;52.014;-0.680;2022-12-07T01:40:01;12.80;;;8.00;;
57249;SDS011;43102;52.014;-0.680;2022-12-07T01:41:01;12.80;;;8.00;;
57249;SDS011;43102;52.014;-0.680;2022-12-07T01:42:00;12.80;;;8.00;;
57249;SDS011;43102;52.014;-0.680;2022-12-07T01:43:00;12.80;;;8.00;;
57249;SDS011;43102;52.014;-0.680;2022-12-07T01:44:18;12.80;;;8.00;;
57249;SDS011;43102;52.014;-0.680;2022-12-07T01:45:31;12.80;;;8.00;;
57249;SDS011;43102;52.014;-0.680;2022-12-07T01:46:01;12.80;;;8.00;;
57249;SDS011;43102;52.014;-0.680;2022-12-07T01:47:03;12.80;;;8.00;;
57249;SDS011;43102;52.014;-0.680;2022-12-07T01:48:00;12.80;;;8.00;;
57249;SDS011;43102;52.014;-0.680;2022-12-07T01:49:01;12.80;;;8.00;;
57249;SDS011;43102;52.014;-0.680;2022-12-07T01:50:01;13.70;;;7.40;;
57249;SDS011;43102;52.014;-0.680;2022-12-07T01:51:04;13.70;;;7.40;;
57249;SDS011;43102;52.014;-0.680;2022-12-07T01:52:10;13.70;;;7.40;;
57249;SDS011;43102;52.014;-0.680;2022-12-07T01:53:03;13.70;;;7.40;;
57249;SDS011;43102;52.014;-0.680;2022-12-07T01:54:01;13.70;;;7.40;;
57249;SDS011;43102;52.014;-0.680;2022-12-07T01:55:04;13.70;;;7.40;;
57249;SDS011;43102;52.014;-0.680;2022-12-07T01:56:00;13.70;;;7.40;;
57249;SDS011;43102;52.014;-0.680;2022-12-07T01:57:01;13.70;;;7.40;;
57249;SDS011;43102;52.014;-0.680;2022-12-07T01:58:00;13.70;;;7.40;;
57249;SDS011;43102;52.014;-0.680;2022-12-07T01:59:00;13.70;;;7.40;;
57249;SDS011;43102;52.014;-0.680;2022-12-07T02:00:01;13.70;;;7.40;;
57249;SDS011;43102;52.014;-0.680;2022-12-07T02:01:00;13.70;;;7.40;;
57249;SDS011;43102;52.014;-0.680;2022-12-07T02:02:02;13.70;;;7.40;;
57249;SDS011;43102;52.014;-0.680;2022-12-07T02:03:07;13.70;;;7.40;;
57249;SDS011;43102;52.014;-0.680;2022-12-07T02:04:00;13.70;;;7.40;;
57249;SDS011;43102;52.014;-0.680;2022-12-07T02:05:03;13.70;;;7.40;;
57249;SDS011;43102;52.014;-0.680;2022-12-07T02:06:00;13.70;;;7.40;;
57249;SDS011;43102;52.014;-0.680;2022-12-07T02:07:00;13.70;;;7.40;;
57249;SDS011;43102;52.014;-0.680;2022-12-07T02:08:00;13.70;;;7.40;;
57249;SDS011;43102;52.014;-0.680;2022-12-07T02:09:00;13.70;;;7.40;;
57249;SDS011;43102;52.014;-0.680;2022-12-07T02:10:12;13.70;;;7.40;;
57249;SDS011;43102;52.014;-0.680;2022-12-07T02:11:02;13.70;;;7.40;;
57249;SDS011;43102;52.014;-0.680;2022-12-07T02:12:00;13.70;;;7.40;;
57249;SDS011;43102;52.014;-0.680;2022-12-07T02:13:07;13.70;;;7.40;;
57249;SDS011;43102;52.014;-0.680;2022-12-07T02:14:00;13.70;;;7.40;;
57249;SDS011;43102;52.014;-0.680;2022-12-07T02:15:00;13.70;;;7.40;;
57249;SDS011;43102;52.014;-0.680;2022-12-07T02:18:05;13.70;;;7.40;;
57249;SDS011;43102;52.014;-0.680;2022-12-07T02:20:08;14.50;;;8.80;;
57249;SDS011;43102;52.014;-0.680;2022-12-07T02:21:07;14.50;;;8.80;;
57249;SDS011;43102;52.014;-0.680;2022-12-07T02:23:21;14.50;;;8.80;;
57249;SDS011;43102;52.014;-0.680;2022-12-07T02:24:15;14.50;;;8.80;;
57249;SDS011;43102;52.014;-0.680;2022-12-07T02:27:09;14.50;;;8.80;;
57249;SDS011;43102;52.014;-0.680;2022-12-07T02:28:21;14.50;;;8.80;;
57249;SDS011;43102;52.014;-0.680;2022-12-07T02:30:09;14.50;;;8.80;;
57249;SDS011;43102;52.014;-0.680;2022-12-07T02:31:05;14.50;;;8.80;;
57249;SDS011;43102;52.014;-0.680;2022-12-07T02:32:10;14.50;;;8.80;;
57249;SDS011;43102;52.014;-0.680;2022-12-07T02:33:02;14.50;;;8.80;;
57249;SDS011;43102;52.014;-0.680;2022-12-07T02:34:09;14.50;;;8.80;;
57249;SDS011;43102;52.014;-0.680;2022-12-07T02:35:12;14.50;;;8.80;;
57249;SDS011;43102;52.014;-0.680;2022-12-07T02:36:02;14.50;;;8.80;;
57249;SDS011;43102;52.014;-0.680;2022-12-07T02:37:04;14.50;;;8.80;;
57249;SDS011;43102;52.014;-0.680;2022-12-07T02:38:25;14.50;;;8.80;;
57249;SDS011;43102;52.014;-0.680;2022-12-07T02:39:06;14.50;;;8.80;;
57249;SDS011;43102;52.014;-0.680;2022-12-07T02:40:09;14.50;;;8.80;;
57249;SDS011;43102;52.014;-0.680;2022-12-07T02:41:06;14.50;;;8.80;;
57249;SDS011;43102;52.014;-0.680;2022-12-07T02:42:04;14.50;;;8.80;;
57249;SDS011;43102;52.014;-0.680;2022-12-07T02:43:09;14.50;;;8.80;;
57249;SDS011;43102;52.014;-0.680;2022-12-07T02:44:04;14.50;;;8.80;;
57249;SDS011;43102;52.014;-0.680;2022-12-07T02:45:01;14.50;;;8.80;;
57249;SDS011;43102;52.014;-0.680;2022-12-07T02:46:06;14.50;;;8.80;;
57249;SDS011;43102;52.014;-0.680;2022-12-07T02:47:04;14.50;;;8.80;;
57249;SDS011;43102;52.014;-0.680;2022-12-07T02:48:00;14.50;;;8.80;;
57249;SDS011;43102;52.014;-0.680;2022-12-07T02:49:01;14.50;;;8.80;;
57249;SDS011;43102;52.014;-0.680;2022-12-07T02:50:04;11.60;;;8.00;;
57249;SDS011;43102;52.014;-0.680;2022-12-07T02:51:00;11.60;;;8.00;;
57249;SDS011;43102;52.014;-0.680;2022-12-07T02:52:00;11.60;;;8.00;;
57249;SDS011;43102;52.014;-0.680;2022-12-07T02:53:00;11.60;;;8.00;;
57249;SDS011;43102;52.014;-0.680;2022-12-07T02:54:01;11.60;;;8.00;;
57249;SDS011;43102;52.014;-0.680;2022-12-07T02:55:00;11.60;;;8.00;;
57249;SDS011;43102;52.014;-0.680;2022-12-07T02:58:20;11.60;;;8.00;;
57249;SDS011;43102;52.014;-0.680;2022-12-07T03:03:06;11.60;;;8.00;;
57249;SDS011;43102;52.014;-0.680;2022-12-07T03:06:13;11.60;;;8.00;;
57249;SDS011;43102;52.014;-0.680;2022-12-07T03:07:06;11.60;;;8.00;;
57249;SDS011;43102;52.014;-0.680;2022-12-07T03:08:21;11.60;;;8.00;;
57249;SDS011;43102;52.014;-0.680;2022-12-07T03:09:05;11.60;;;8.00;;
57249;SDS011;43102;52.014;-0.680;2022-12-07T03:11:06;11.60;;;8.00;;
57249;SDS011;43102;52.014;-0.680;2022-12-07T03:12:09;11.60;;;8.00;;
57249;SDS011;43102;52.014;-0.680;2022-12-07T03:14:10;11.60;;;8.00;;
57249;SDS011;43102;52.014;-0.680;2022-12-07T03:15:08;11.60;;;8.00;;
57249;SDS011;43102;52.014;-0.680;2022-12-07T03:17:10;11.60;;;8.00;;
57249;SDS011;43102;52.014;-0.680;2022-12-07T03:18:01;11.60;;;8.00;;
57249;SDS011;43102;52.014;-0.680;2022-12-07T03:19:03;11.60;;;8.00;;
57249;SDS011;43102;52.014;-0.680;2022-12-07T03:20:03;13.80;;;9.00;;
57249;SDS011;43102;52.014;-0.680;2022-12-07T03:21:04;13.80;;;9.00;;
57249;SDS011;43102;52.014;-0.680;2022-12-07T03:22:04;13.80;;;9.00;;
57249;SDS011;43102;52.014;-0.680;2022-12-07T03:23:00;13.80;;;9.00;;
57249;SDS011;43102;52.014;-0.680;2022-12-07T03:24:04;13.80;;;9.00;;
57249;SDS011;43102;52.014;-0.680;2022-12-07T03:25:05;13.80;;;9.00;;
57249;SDS011;43102;52.014;-0.680;2022-12-07T03:26:01;13.80;;;9.00;;
57249;SDS011;43102;52.014;-0.680;2022-12-07T03:27:10;13.80;;;9.00;;
57249;SDS011;43102;52.014;-0.680;2022-12-07T03:28:04;13.80;;;9.00;;
57249;SDS011;43102;52.014;-0.680;2022-12-07T03:29:05;13.80;;;9.00;;
57249;SDS011;43102;52.014;-0.680;2022-12-07T03:30:05;13.80;;;9.00;;
57249;SDS011;43102;52.014;-0.680;2022-12-07T03:31:09;13.80;;;9.00;;
57249;SDS011;43102;52.014;-0.680;2022-12-07T03:32:05;13.80;;;9.00;;
57249;SDS011;43102;52.014;-0.680;2022-12-07T03:33:12;13.80;;;9.00;;
57249;SDS011;43102;52.014;-0.680;2022-12-07T03:34:12;13.80;;;9.00;;
57249;SDS011;43102;52.014;-0.680;2022-12-07T03:35:07;13.80;;;9.00;;
57249;SDS011;43102;52.014;-0.680;2022-12-07T03:36:06;13.80;;;9.00;;
57249;SDS011;43102;52.014;-0.680;2022-12-07T03:37:05;13.80;;;9.00;;
57249;SDS011;43102;52.014;-0.680;2022-12-07T03:38:04;13.80;;;9.00;;
57249;SDS011;43102;52.014;-0.680;2022-12-07T03:39:13;13.80;;;9.00;;
57249;SDS011;43102;52.014;-0.680;2022-12-07T03:40:07;13.80;;;9.00;;
57249;SDS011;43102;52.014;-0.680;2022-12-07T03:42:03;13.80;;;9.00;;
57249;SDS011;43102;52.014;-0.680;2022-12-07T03:43:01;13.80;;;9.00;;
57249;SDS011;43102;52.014;-0.680;2022-12-07T03:44:00;13.80;;;9.00;;
57249;SDS011;43102;52.014;-0.680;2022-12-07T03:45:04;13.80;;;9.00;;
57249;SDS011;43102;52.014;-0.680;2022-12-07T03:47:05;13.80;;;9.00;;
57249;SDS011;43102;52.014;-0.680;2022-12-07T03:48:07;13.80;;;9.00;;
57249;SDS011;43102;52.014;-0.680;2022-12-07T03:52:18;14.00;;;9.20;;
57249;SDS011;43102;52.014;-0.680;2022-12-07T03:53:08;14.00;;;9.20;;
57249;SDS011;43102;52.014;-0.680;2022-12-07T03:54:09;14.00;;;9.20;;
57249;SDS011;43102;52.014;-0.680;2022-12-07T03:55:06;14.00;;;9.20;;
57249;SDS011;43102;52.014;-0.680;2022-12-07T03:56:01;14.00;;;9.20;;
57249;SDS011;43102;52.014;-0.680;2022-12-07T03:57:01;14.00;;;9.20;;
57249;SDS011;43102;52.014;-0.680;2022-12-07T03:58:08;14.00;;;9.20;;
57249;SDS011;43102;52.014;-0.680;2022-12-07T03:59:00;14.00;;;9.20;;
57249;SDS011;43102;52.014;-0.680;2022-12-07T04:00:03;14.00;;;9.20;;
57249;SDS011;43102;52.014;-0.680;2022-12-07T04:01:00;14.00;;;9.20;;
57249;SDS011;43102;52.014;-0.680;2022-12-07T04:02:06;14.00;;;9.20;;
57249;SDS011;43102;52.014;-0.680;2022-12-07T04:03:00;14.00;;;9.20;;
57249;SDS011;43102;52.014;-0.680;2022-12-07T04:04:00;14.00;;;9.20;;
57249;SDS011;43102;52.014;-0.680;2022-12-07T04:05:00;14.00;;;9.20;;
57249;SDS011;43102;52.014;-0.680;2022-12-07T04:06:00;14.00;;;9.20;;
57249;SDS011;43102;52.014;-0.680;2022-12-07T04:07:00;14.00;;;9.20;;
57249;SDS011;43102;52.014;-0.680;2022-12-07T04:08:00;14.00;;;9.20;;
57249;SDS011;43102;52.014;-0.680;2022-12-07T04:09:00;14.00;;;9.20;;
57249;SDS011;43102;52.014;-0.680;2022-12-07T04:10:01;14.00;;;9.20;;
57249;SDS011;43102;52.014;-0.680;2022-12-07T04:11:01;14.00;;;9.20;;
57249;SDS011;43102;52.014;-0.680;2022-12-07T04:12:00;14.00;;;9.20;;
57249;SDS011;43102;52.014;-0.680;2022-12-07T04:13:00;14.00;;;9.20;;
57249;SDS011;43102;52.014;-0.680;2022-12-07T04:14:11;14.00;;;9.20;;
57249;SDS011;43102;52.014;-0.680;2022-12-07T04:15:00;14.00;;;9.20;;
57249;SDS011;43102;52.014;-0.680;2022-12-07T04:16:01;14.00;;;9.20;;
57249;SDS011;43102;52.014;-0.680;2022-12-07T04:17:00;14.00;;;9.20;;
57249;SDS011;43102;52.014;-0.680;2022-12-07T04:18:00;14.00;;;9.20;;
57249;SDS011;43102;52.014;-0.680;2022-12-07T04:19:00;14.00;;;9.20;;
57249;SDS011;43102;52.014;-0.680;2022-12-07T04:20:01;14.40;;;8.90;;
57249;SDS011;43102;52.014;-0.680;2022-12-07T04:21:00;14.40;;;8.90;;
57249;SDS011;43102;52.014;-0.680;2022-12-07T04:22:03;14.40;;;8.90;;
57249;SDS011;43102;52.014;-0.680;2022-12-07T04:23:00;14.40;;;8.90;;
57249;SDS011;43102;52.014;-0.680;2022-12-07T04:24:00;14.40;;;8.90;;
57249;SDS011;43102;52.014;-0.680;2022-12-07T04:25:00;14.40;;;8.90;;
57249;SDS011;43102;52.014;-0.680;2022-12-07T04:26:00;14.40;;;8.90;;
57249;SDS011;43102;52.014;-0.680;2022-12-07T04:27:00;14.40;;;8.90;;
57249;SDS011;43102;52.014;-0.680;2022-12-07T04:28:00;14.40;;;8.90;;
57249;SDS011;43102;52.014;-0.680;2022-12-07T04:29:07;14.40;;;8.90;;
57249;SDS011;43102;52.014;-0.680;2022-12-07T04:30:01;14.40;;;8.90;;
57249;SDS011;43102;52.014;-0.680;2022-12-07T04:31:00;14.40;;;8.90;;
57249;SDS011;43102;52.014;-0.680;2022-12-07T04:32:00;14.40;;;8.90;;
57249;SDS011;43102;52.014;-0.680;2022-12-07T04:33:00;14.40;;;8.90;;
57249;SDS011;43102;52.014;-0.680;2022-12-07T04:34:00;14.40;;;8.90;;
57249;SDS011;43102;52.014;-0.680;2022-12-07T04:35:00;14.40;;;8.90;;
57249;SDS011;43102;52.014;-0.680;2022-12-07T04:36:00;14.40;;;8.90;;
57249;SDS011;43102;52.014;-0.680;2022-12-07T04:37:00;14.40;;;8.90;;
57249;SDS011;43102;52.014;-0.680;2022-12-07T04:38:00;14.40;;;8.90;;
57249;SDS011;43102;52.014;-0.680;2022-12-07T04:39:03;14.40;;;8.90;;
57249;SDS011;43102;52.014;-0.680;2022-12-07T04:40:01;14.40;;;8.90;;
57249;SDS011;43102;52.014;-0.680;2022-12-07T04:41:05;14.40;;;8.90;;
57249;SDS011;43102;52.014;-0.680;2022-12-07T04:42:01;14.40;;;8.90;;
57249;SDS011;43102;52.014;-0.680;2022-12-07T04:43:00;14.40;;;8.90;;
57249;SDS011;43102;52.014;-0.680;2022-12-07T04:44:02;14.40;;;8.90;;
57249;SDS011;43102;52.014;-0.680;2022-12-07T04:45:00;14.40;;;8.90;;
57249;SDS011;43102;52.014;-0.680;2022-12-07T04:46:00;14.40;;;8.90;;
57249;SDS011;43102;52.014;-0.680;2022-12-07T04:47:00;14.40;;;8.90;;
57249;SDS011;43102;52.014;-0.680;2022-12-07T04:48:00;14.40;;;8.90;;
57249;SDS011;43102;52.014;-0.680;2022-12-07T04:49:00;14.40;;;8.90;;
57249;SDS011;43102;52.014;-0.680;2022-12-07T04:50:01;15.50;;;9.70;;
57249;SDS011;43102;52.014;-0.680;2022-12-07T04:51:01;15.50;;;9.70;;
57249;SDS011;43102;52.014;-0.680;2022-12-07T04:52:00;15.50;;;9.70;;
57249;SDS011;43102;52.014;-0.680;2022-12-07T04:53:00;15.50;;;9.70;;
57249;SDS011;43102;52.014;-0.680;2022-12-07T04:54:00;15.50;;;9.70;;
57249;SDS011;43102;52.014;-0.680;2022-12-07T04:55:00;15.50;;;9.70;;
57249;SDS011;43102;52.014;-0.680;2022-12-07T04:56:00;15.50;;;9.70;;
57249;SDS011;43102;52.014;-0.680;2022-12-07T04:57:00;15.50;;;9.70;;
57249;SDS011;43102;52.014;-0.680;2022-12-07T04:58:00;15.50;;;9.70;;
57249;SDS011;43102;52.014;-0.680;2022-12-07T04:59:01;15.50;;;9.70;;
57249;SDS011;43102;52.014;-0.680;2022-12-07T05:00:01;15.50;;;9.70;;
57249;SDS011;43102;52.014;-0.680;2022-12-07T05:01:00;15.50;;;9.70;;
57249;SDS011;43102;52.014;-0.680;2022-12-07T05:02:00;15.50;;;9.70;;
57249;SDS011;43102;52.014;-0.680;2022-12-07T05:03:00;15.50;;;9.70;;
57249;SDS011;43102;52.014;-0.680;2022-12-07T05:04:00;15.50;;;9.70;;
57249;SDS011;43102;52.014;-0.680;2022-12-07T05:05:00;15.50;;;9.70;;
57249;SDS011;43102;52.014;-0.680;2022-12-07T05:06:00;15.50;;;9.70;;
57249;SDS011;43102;52.014;-0.680;2022-12-07T05:07:00;15.50;;;9.70;;
57249;SDS011;43102;52.014;-0.680;2022-12-07T05:08:00;15.50;;;9.70;;
57249;SDS011;43102;52.014;-0.680;2022-12-07T05:09:02;15.50;;;9.70;;
57249;SDS011;43102;52.014;-0.680;2022-12-07T05:10:01;15.50;;;9.70;;
57249;SDS011;43102;52.014;-0.680;2022-12-07T05:11:01;15.50;;;9.70;;
57249;SDS011;43102;52.014;-0.680;2022-12-07T05:12:00;15.50;;;9.70;;
57249;SDS011;43102;52.014;-0.680;2022-12-07T05:13:00;15.50;;;9.70;;
57249;SDS011;43102;52.014;-0.680;2022-12-07T05:14:01;15.50;;;9.70;;
57249;SDS011;43102;52.014;-0.680;2022-12-07T05:15:00;15.50;;;9.70;;
57249;SDS011;43102;52.014;-0.680;2022-12-07T05:16:00;15.50;;;9.70;;
57249;SDS011;43102;52.014;-0.680;2022-12-07T05:17:00;15.50;;;9.70;;
57249;SDS011;43102;52.014;-0.680;2022-12-07T05:18:00;15.50;;;9.70;;
57249;SDS011;43102;52.014;-0.680;2022-12-07T05:19:00;15.50;;;9.70;;
57249;SDS011;43102;52.014;-0.680;2022-12-07T05:20:01;17.10;;;10.30;;
57249;SDS011;43102;52.014;-0.680;2022-12-07T05:21:00;17.10;;;10.30;;
57249;SDS011;43102;52.014;-0.680;2022-12-07T05:22:00;17.10;;;10.30;;
57249;SDS011;43102;52.014;-0.680;2022-12-07T05:23:00;17.10;;;10.30;;
57249;SDS011;43102;52.014;-0.680;2022-12-07T05:24:00;17.10;;;10.30;;
57249;SDS011;43102;52.014;-0.680;2022-12-07T05:25:00;17.10;;;10.30;;
57249;SDS011;43102;52.014;-0.680;2022-12-07T05:26:00;17.10;;;10.30;;
57249;SDS011;43102;52.014;-0.680;2022-12-07T05:27:00;17.10;;;10.30;;
57249;SDS011;43102;52.014;-0.680;2022-12-07T05:28:00;17.10;;;10.30;;
57249;SDS011;43102;52.014;-0.680;2022-12-07T05:29:00;17.10;;;10.30;;
57249;SDS011;43102;52.014;-0.680;2022-12-07T05:30:01;17.10;;;10.30;;
57249;SDS011;43102;52.014;-0.680;2022-12-07T05:31:00;17.10;;;10.30;;
57249;SDS011;43102;52.014;-0.680;2022-12-07T05:32:00;17.10;;;10.30;;
57249;SDS011;43102;52.014;-0.680;2022-12-07T05:33:00;17.10;;;10.30;;
57249;SDS011;43102;52.014;-0.680;2022-12-07T05:34:00;17.10;;;10.30;;
57249;SDS011;43102;52.014;-0.680;2022-12-07T05:35:00;17.10;;;10.30;;
57249;SDS011;43102;52.014;-0.680;2022-12-07T05:36:05;17.10;;;10.30;;
57249;SDS011;43102;52.014;-0.680;2022-12-07T05:37:00;17.10;;;10.30;;
57249;SDS011;43102;52.014;-0.680;2022-12-07T05:38:00;17.10;;;10.30;;
57249;SDS011;43102;52.014;-0.680;2022-12-07T05:39:00;17.10;;;10.30;;
57249;SDS011;43102;52.014;-0.680;2022-12-07T05:40:01;17.10;;;10.30;;
57249;SDS011;43102;52.014;-0.680;2022-12-07T05:41:02;17.10;;;10.30;;
57249;SDS011;43102;52.014;-0.680;2022-12-07T05:42:10;17.10;;;10.30;;
57249;SDS011;43102;52.014;-0.680;2022-12-07T05:43:05;17.10;;;10.30;;
57249;SDS011;43102;52.014;-0.680;2022-12-07T05:44:00;17.10;;;10.30;;
57249;SDS011;43102;52.014;-0.680;2022-12-07T05:45:00;17.10;;;10.30;;
57249;SDS011;43102;52.014;-0.680;2022-12-07T05:46:00;17.10;;;10.30;;
57249;SDS011;43102;52.014;-0.680;2022-12-07T05:47:00;17.10;;;10.30;;
57249;SDS011;43102;52.014;-0.680;2022-12-07T05:48:00;17.10;;;10.30;;
57249;SDS011;43102;52.014;-0.680;2022-12-07T05:49:00;17.10;;;10.30;;
57249;SDS011;43102;52.014;-0.680;2022-12-07T05:50:01;15.90;;;10.00;;
57249;SDS011;43102;52.014;-0.680;2022-12-07T05:51:00;15.90;;;10.00;;
57249;SDS011;43102;52.014;-0.680;2022-12-07T05:52:00;15.90;;;10.00;;
57249;SDS011;43102;52.014;-0.680;2022-12-07T05:53:00;15.90;;;10.00;;
57249;SDS011;43102;52.014;-0.680;2022-12-07T05:54:00;15.90;;;10.00;;
57249;SDS011;43102;52.014;-0.680;2022-12-07T05:55:00;15.90;;;10.00;;
57249;SDS011;43102;52.014;-0.680;2022-12-07T05:56:00;15.90;;;10.00;;
57249;SDS011;43102;52.014;-0.680;2022-12-07T05:57:00;15.90;;;10.00;;
57249;SDS011;43102;52.014;-0.680;2022-12-07T05:58:10;15.90;;;10.00;;
57249;SDS011;43102;52.014;-0.680;2022-12-07T05:59:10;15.90;;;10.00;;
57249;SDS011;43102;52.014;-0.680;2022-12-07T06:00:01;15.90;;;10.00;;
57249;SDS011;43102;52.014;-0.680;2022-12-07T06:01:00;15.90;;;10.00;;
57249;SDS011;43102;52.014;-0.680;2022-12-07T06:02:04;15.90;;;10.00;;
57249;SDS011;43102;52.014;-0.680;2022-12-07T06:03:00;15.90;;;10.00;;
57249;SDS011;43102;52.014;-0.680;2022-12-07T06:04:00;15.90;;;10.00;;
57249;SDS011;43102;52.014;-0.680;2022-12-07T06:05:00;15.90;;;10.00;;
57249;SDS011;43102;52.014;-0.680;2022-12-07T06:06:00;15.90;;;10.00;;
57249;SDS011;43102;52.014;-0.680;2022-12-07T06:07:00;15.90;;;10.00;;
57249;SDS011;43102;52.014;-0.680;2022-12-07T06:08:06;15.90;;;10.00;;
57249;SDS011;43102;52.014;-0.680;2022-12-07T06:09:00;15.90;;;10.00;;
57249;SDS011;43102;52.014;-0.680;2022-12-07T06:10:01;15.90;;;10.00;;
57249;SDS011;43102;52.014;-0.680;2022-12-07T06:11:10;15.90;;;10.00;;
57249;SDS011;43102;52.014;-0.680;2022-12-07T06:12:11;15.90;;;10.00;;